X  Kiinni Metar Aviation säätiedot     YMML Melbourne International Airport
Lämpötila
16°C Lämpötila
12°C Kastepiste
77% Kosteus



Tuuli
4 M/S
9 MPH
14 KM/T
8 KTS



160°
EEI
Nykyiset olosuhteet

Puolipilvistä Puolipilvistä
Paine 1010.92 (hPa) - 29.85 (inHg)
Näkyvyys 6.2 (maili) - 10 (km)
Lentokenttä
Lentokentän koodi YMML

Sijainti: Melbourne International Airport
Etäisyys: 18 (km)

Metar:
YMML 052300Z 16008KT 9999 FEW021 BKN040 16/12 Q1011

Aika: 06-12-2022 10:00 AEDT